Time;durP1;ratioP1;P1;durP2;ratioP2;P2;SDS_P1;SDS_P2;PMS_P1;PMS_P2;Temp;Humidity;BMP_temperature;BMP_pressure;BME280_temperature;BME280_humidity;BME280_pressure;Samples;Min_cycle;Max_cycle;Signal;HPM_P1;HPM_P2
2021/10/29 00:01:02;;;;;;;18.27;12.70;;;;;;;;;;5092736;28;20092;-76
2021/10/29 00:03:28;;;;;;;16.90;11.85;;;;;;;;;;5094401;28;20024;-75
2021/10/29 00:05:54;;;;;;;24.58;14.35;;;;;;;;;;5094372;28;20032;-76
2021/10/29 00:08:20;;;;;;;30.25;16.48;;;;;;;;;;5093999;28;20145;-76
2021/10/29 00:10:46;;;;;;;22.67;13.27;;;;;;;;;;5094345;28;20020;-76
2021/10/29 00:13:13;;;;;;;19.95;11.57;;;;;;;;;;5094441;28;20491;-74
2021/10/29 00:15:39;;;;;;;19.30;11.60;;;;;;;;;;5093965;28;20028;-75
2021/10/29 00:18:05;;;;;;;18.85;12.13;;;;;;;;;;5094191;28;20442;-76
2021/10/29 00:20:32;;;;;;;21.45;12.43;;;;;;;;;;5094284;28;20050;-75
2021/10/29 00:22:58;;;;;;;20.98;13.70;;;;;;;;;;5093680;28;20074;-75
2021/10/29 00:25:24;;;;;;;20.00;12.95;;;;;;;;;;5092371;28;20492;-75
2021/10/29 00:27:51;;;;;;;20.70;12.55;;;;;;;;;;5094090;28;20032;-75
2021/10/29 00:30:18;;;;;;;27.50;16.60;;;;;;;;;;5093591;28;20330;-74
2021/10/29 00:32:44;;;;;;;26.55;16.00;;;;;;;;;;5092619;28;20020;-74
2021/10/29 00:35:10;;;;;;;27.42;15.93;;;;;;;;;;5092046;28;20031;-74
2021/10/29 00:37:39;;;;;;;25.08;15.65;;;;;;;;;;5093458;28;20028;-77
2021/10/29 00:40:10;;;;;;;20.27;13.57;;;;;;;;;;5093734;28;20043;-77
2021/10/29 00:42:37;;;;;;;20.67;13.07;;;;;;;;;;5093880;28;20425;-76
2021/10/29 00:45:05;;;;;;;15.80;10.77;;;;;;;;;;5093652;28;20077;-76
2021/10/29 00:47:32;;;;;;;20.92;12.27;;;;;;;;;;5093682;28;20090;-77
2021/10/29 00:49:58;;;;;;;16.35;11.18;;;;;;;;;;5093343;28;20361;-76
2021/10/29 00:52:25;;;;;;;21.25;12.52;;;;;;;;;;5093655;28;20028;-76
2021/10/29 00:54:51;;;;;;;22.45;12.00;;;;;;;;;;5093776;28;20487;-76
2021/10/29 00:57:17;;;;;;;19.52;11.90;;;;;;;;;;5093254;28;20024;-75
2021/10/29 00:59:43;;;;;;;17.10;11.02;;;;;;;;;;5093527;28;20095;-76
2021/10/29 01:02:10;;;;;;;21.48;12.68;;;;;;;;;;5093792;28;20028;-76
2021/10/29 01:04:36;;;;;;;19.42;12.15;;;;;;;;;;5092992;28;20079;-75
2021/10/29 01:07:02;;;;;;;19.65;11.02;;;;;;;;;;5093591;28;20020;-75
2021/10/29 01:09:28;;;;;;;19.08;11.82;;;;;;;;;;5093332;28;20024;-74
2021/10/29 01:11:55;;;;;;;20.77;11.57;;;;;;;;;;5092841;28;20024;-74
2021/10/29 01:14:21;;;;;;;21.45;12.15;;;;;;;;;;5093527;28;20017;-73
2021/10/29 01:16:47;;;;;;;16.90;10.73;;;;;;;;;;5093238;28;20020;-74
2021/10/29 01:19:13;;;;;;;19.98;12.68;;;;;;;;;;5092955;28;20476;-74
2021/10/29 01:21:40;;;;;;;18.20;11.25;;;;;;;;;;5093304;28;20027;-74
2021/10/29 01:24:07;;;;;;;18.35;11.85;;;;;;;;;;5093342;28;20491;-74
2021/10/29 01:26:34;;;;;;;17.30;11.38;;;;;;;;;;5092686;28;20092;-74
2021/10/29 01:29:00;;;;;;;20.98;13.48;;;;;;;;;;5093050;28;20020;-74
2021/10/29 01:31:27;;;;;;;17.67;12.32;;;;;;;;;;5093076;28;20480;-73
2021/10/29 01:33:53;;;;;;;19.33;12.30;;;;;;;;;;5092707;28;20169;-75
2021/10/29 01:36:19;;;;;;;21.85;14.30;;;;;;;;;;5092921;28;20126;-74
2021/10/29 01:38:49;;;;;;;21.73;13.60;;;;;;;;;;5074632;28;20495;-75
2021/10/29 01:41:15;;;;;;;20.98;13.77;;;;;;;;;;5093243;28;20021;-74
2021/10/29 01:43:46;;;;;;;23.13;14.60;;;;;;;;;;5092978;28;20020;-74
2021/10/29 01:46:13;;;;;;;21.65;13.68;;;;;;;;;;5092561;28;20085;-75
2021/10/29 01:48:43;;;;;;;27.48;14.32;;;;;;;;;;5097106;28;20362;-75
2021/10/29 01:51:10;;;;;;;22.55;14.05;;;;;;;;;;5097062;28;20058;-75
2021/10/29 01:53:36;;;;;;;20.73;12.93;;;;;;;;;;5095306;28;20387;-75
2021/10/29 01:56:03;;;;;;;22.23;13.00;;;;;;;;;;5096897;28;20026;-74
2021/10/29 01:58:29;;;;;;;24.85;14.50;;;;;;;;;;5096913;28;20044;-74
2021/10/29 02:00:56;;;;;;;17.38;12.00;;;;;;;;;;5096610;28;20564;-75
2021/10/29 02:03:22;;;;;;;21.35;13.30;;;;;;;;;;5096962;28;20095;-76
2021/10/29 02:05:48;;;;;;;19.65;12.65;;;;;;;;;;5096757;28;20028;-76
2021/10/29 02:08:17;;;;;;;21.20;12.52;;;;;;;;;;5096530;28;20425;-76
2021/10/29 02:10:44;;;;;;;25.63;14.48;;;;;;;;;;5095422;28;20020;-76
2021/10/29 02:13:10;;;;;;;22.77;14.20;;;;;;;;;;5096642;28;20488;-76
2021/10/29 02:15:36;;;;;;;20.20;11.13;;;;;;;;;;5096220;28;20475;-76
2021/10/29 02:18:02;;;;;;;17.38;11.77;;;;;;;;;;5096459;28;20016;-75
2021/10/29 02:20:29;;;;;;;18.38;11.43;;;;;;;;;;5096714;28;20021;-75
2021/10/29 02:22:55;;;;;;;20.90;10.93;;;;;;;;;;5094882;28;20476;-76
2021/10/29 02:25:21;;;;;;;19.73;11.38;;;;;;;;;;5096114;28;20047;-75
2021/10/29 02:27:47;;;;;;;19.25;12.27;;;;;;;;;;5096313;28;20151;-75
2021/10/29 02:30:13;;;;;;;21.15;13.32;;;;;;;;;;5096269;28;20020;-75
2021/10/29 02:32:40;;;;;;;19.42;11.57;;;;;;;;;;5096496;28;20481;-75
2021/10/29 02:35:06;;;;;;;20.15;12.15;;;;;;;;;;5094576;28;20139;-75
2021/10/29 02:37:32;;;;;;;22.58;13.50;;;;;;;;;;5096075;28;20099;-75
2021/10/29 02:39:59;;;;;;;19.67;12.23;;;;;;;;;;5096297;28;20053;-76
2021/10/29 02:42:25;;;;;;;21.02;12.15;;;;;;;;;;5094995;28;20027;-73
2021/10/29 02:44:51;;;;;;;26.20;15.73;;;;;;;;;;5095322;28;20021;-76
2021/10/29 02:47:18;;;;;;;23.85;13.98;;;;;;;;;;5096363;28;20411;-76
2021/10/29 02:49:44;;;;;;;23.05;14.88;;;;;;;;;;5095711;28;20024;-76
2021/10/29 02:52:10;;;;;;;31.35;16.27;;;;;;;;;;5094619;28;20024;-77
2021/10/29 02:54:36;;;;;;;24.35;15.98;;;;;;;;;;5095657;28;20430;-76
2021/10/29 02:57:02;;;;;;;19.85;12.48;;;;;;;;;;5095267;28;20028;-76
2021/10/29 02:59:28;;;;;;;19.70;13.10;;;;;;;;;;5093936;28;20103;-75
2021/10/29 03:01:55;;;;;;;22.70;13.57;;;;;;;;;;5095322;28;20429;-76
2021/10/29 03:04:21;;;;;;;19.13;12.32;;;;;;;;;;5095368;28;20031;-75
2021/10/29 03:06:47;;;;;;;21.65;11.55;;;;;;;;;;5095808;28;20487;-76
2021/10/29 03:09:13;;;;;;;21.10;12.85;;;;;;;;;;5095825;28;20028;-76
2021/10/29 03:11:40;;;;;;;23.40;14.75;;;;;;;;;;5095197;28;20030;-76
2021/10/29 03:14:06;;;;;;;25.77;13.43;;;;;;;;;;5095479;28;20046;-76
2021/10/29 03:16:32;;;;;;;25.05;15.32;;;;;;;;;;5095440;28;20028;-76
2021/10/29 03:18:58;;;;;;;26.80;15.77;;;;;;;;;;5095145;28;20050;-76
2021/10/29 03:21:24;;;;;;;31.40;15.98;;;;;;;;;;5095236;28;20383;-75
2021/10/29 03:23:51;;;;;;;24.83;15.73;;;;;;;;;;5095599;28;20020;-76
2021/10/29 03:26:17;;;;;;;22.73;13.73;;;;;;;;;;5094752;28;20569;-76
2021/10/29 03:28:43;;;;;;;23.65;15.25;;;;;;;;;;5095140;28;20020;-76
2021/10/29 03:31:09;;;;;;;20.00;13.90;;;;;;;;;;5094747;28;20032;-76
2021/10/29 03:33:38;;;;;;;24.05;15.68;;;;;;;;;;5094952;28;20056;-75
2021/10/29 03:36:06;;;;;;;24.67;15.02;;;;;;;;;;5095129;28;20030;-75
2021/10/29 03:41:04;;;;;;;23.63;14.45;;;;;;;;;;5094904;28;20032;-75
2021/10/29 03:43:33;;;;;;;30.63;16.15;;;;;;;;;;5094840;28;20123;-76
2021/10/29 03:46:08;;;;;;;29.45;18.58;;;;;;;;;;5094314;28;20059;-76
2021/10/29 03:48:43;;;;;;;25.75;15.85;;;;;;;;;;5095196;28;20061;-76
2021/10/29 03:54:25;;;;;;;31.95;19.05;;;;;;;;;;5071796;28;20063;-76
2021/10/29 03:59:26;;;;;;;29.20;17.85;;;;;;;;;;5094232;28;20020;-75
2021/10/29 04:01:53;;;;;;;28.65;19.48;;;;;;;;;;5094610;28;20046;-76
2021/10/29 04:04:19;;;;;;;32.55;21.80;;;;;;;;;;5094452;28;20102;-75
2021/10/29 04:06:46;;;;;;;34.67;20.42;;;;;;;;;;5094201;28;20118;-76
2021/10/29 04:09:12;;;;;;;39.35;22.08;;;;;;;;;;5092063;28;20024;-75
2021/10/29 04:11:39;;;;;;;31.50;18.98;;;;;;;;;;5094478;28;20048;-76
2021/10/29 04:14:07;;;;;;;34.50;20.17;;;;;;;;;;5094017;28;20020;-75
2021/10/29 04:16:36;;;;;;;29.13;17.23;;;;;;;;;;5094518;28;20487;-75
2021/10/29 04:19:03;;;;;;;31.50;19.38;;;;;;;;;;5094382;28;20051;-75
2021/10/29 04:21:29;;;;;;;31.88;19.70;;;;;;;;;;5093918;28;20103;-77
2021/10/29 04:23:56;;;;;;;43.72;24.17;;;;;;;;;;5094353;28;20384;-76
2021/10/29 04:26:22;;;;;;;50.88;28.08;;;;;;;;;;5094052;28;20057;-74
2021/10/29 04:28:53;;;;;;;47.30;27.55;;;;;;;;;;5093776;28;20411;-76
2021/10/29 04:31:23;;;;;;;64.43;36.38;;;;;;;;;;5094294;28;20035;-76
2021/10/29 04:33:49;;;;;;;57.33;33.13;;;;;;;;;;5094017;28;20020;-74
2021/10/29 04:36:16;;;;;;;42.45;25.15;;;;;;;;;;5093374;28;20542;-73
2021/10/29 04:38:42;;;;;;;37.08;20.55;;;;;;;;;;5093751;28;20020;-73
2021/10/29 04:41:08;;;;;;;29.98;17.48;;;;;;;;;;5093661;28;20091;-73
2021/10/29 04:43:34;;;;;;;32.25;17.70;;;;;;;;;;5093343;28;20036;-74
2021/10/29 04:46:00;;;;;;;31.52;17.70;;;;;;;;;;5093655;28;20032;-74
2021/10/29 04:48:27;;;;;;;27.38;16.80;;;;;;;;;;5093599;28;20539;-74
2021/10/29 04:50:53;;;;;;;28.67;18.48;;;;;;;;;;5093291;28;20427;-74
2021/10/29 04:53:19;;;;;;;67.40;40.42;;;;;;;;;;5093543;28;20070;-74
2021/10/29 04:55:45;;;;;;;53.67;33.92;;;;;;;;;;5091859;28;20460;-74
2021/10/29 04:58:11;;;;;;;43.78;27.05;;;;;;;;;;5093440;28;20050;-75
2021/10/29 05:00:38;;;;;;;38.03;22.65;;;;;;;;;;5093374;28;20032;-74
2021/10/29 05:03:06;;;;;;;38.78;24.25;;;;;;;;;;5093062;28;20047;-75
2021/10/29 05:05:34;;;;;;;42.53;25.10;;;;;;;;;;5093298;28;20047;-75
2021/10/29 05:08:00;;;;;;;46.42;32.47;;;;;;;;;;5093266;28;20513;-75
2021/10/29 05:10:26;;;;;;;32.45;20.85;;;;;;;;;;5092857;28;20024;-75
2021/10/29 05:12:53;;;;;;;27.90;17.77;;;;;;;;;;5093428;28;20028;-75
2021/10/29 05:15:19;;;;;;;26.60;18.15;;;;;;;;;;5093247;28;20077;-75
2021/10/29 05:17:46;;;;;;;26.52;18.00;;;;;;;;;;5092685;28;20047;-75
2021/10/29 05:20:13;;;;;;;25.58;16.20;;;;;;;;;;5092842;28;20024;-74
2021/10/29 05:22:39;;;;;;;28.38;19.20;;;;;;;;;;5091197;28;20107;-72
2021/10/29 05:25:06;;;;;;;45.97;29.23;;;;;;;;;;5092934;28;20411;-73
2021/10/29 05:27:32;;;;;;;53.00;33.08;;;;;;;;;;5092510;28;20026;-73
2021/10/29 05:29:58;;;;;;;53.15;29.90;;;;;;;;;;5079990;28;20035;-74
2021/10/29 05:32:24;;;;;;;54.80;32.25;;;;;;;;;;5070886;28;20384;-75
2021/10/29 05:34:50;;;;;;;55.53;32.03;;;;;;;;;;5072723;28;20054;-73
2021/10/29 05:37:17;;;;;;;62.80;36.40;;;;;;;;;;5072495;28;20021;-73
2021/10/29 05:39:43;;;;;;;70.45;38.38;;;;;;;;;;5071228;28;20473;-74
2021/10/29 05:42:09;;;;;;;69.18;39.53;;;;;;;;;;5070244;28;20051;-75
2021/10/29 05:44:35;;;;;;;70.07;43.20;;;;;;;;;;5070875;28;20028;-76
2021/10/29 05:47:02;;;;;;;63.75;36.72;;;;;;;;;;5076416;28;20031;-73
2021/10/29 05:49:28;;;;;;;58.67;34.58;;;;;;;;;;5071122;28;20020;-74
2021/10/29 05:51:56;;;;;;;55.88;33.92;;;;;;;;;;5068950;28;20579;-74
2021/10/29 05:57:02;;;;;;;65.97;40.05;;;;;;;;;;5071191;28;20029;-75
2021/10/29 05:59:33;;;;;;;72.53;42.30;;;;;;;;;;5069724;28;20078;-74
2021/10/29 06:01:59;;;;;;;67.32;41.30;;;;;;;;;;5071793;28;20032;-76
2021/10/29 06:04:26;;;;;;;72.15;41.65;;;;;;;;;;5070528;28;20042;-74
2021/10/29 06:06:55;;;;;;;54.65;32.20;;;;;;;;;;5063511;28;20115;-73
2021/10/29 06:09:21;;;;;;;39.67;25.85;;;;;;;;;;5084359;28;20411;-74
2021/10/29 06:11:47;;;;;;;35.17;21.75;;;;;;;;;;5090913;28;20024;-72
2021/10/29 06:14:15;;;;;;;32.03;19.75;;;;;;;;;;5091004;28;20024;-71
2021/10/29 06:16:41;;;;;;;41.17;20.45;;;;;;;;;;5087010;28;20139;-75
2021/10/29 06:19:07;;;;;;;33.35;18.77;;;;;;;;;;5085678;28;20054;-71
2021/10/29 06:24:13;;;;;;;40.75;25.15;;;;;;;;;;5068073;28;20043;-73
2021/10/29 06:26:45;;;;;;;38.90;23.15;;;;;;;;;;5080956;28;20385;-72
2021/10/29 06:29:11;;;;;;;34.13;22.27;;;;;;;;;;5078745;28;20016;-73
2021/10/29 06:31:38;;;;;;;39.85;23.40;;;;;;;;;;5084161;28;20103;-71
2021/10/29 06:34:05;;;;;;;35.33;22.63;;;;;;;;;;5080740;28;20017;-73
2021/10/29 06:36:31;;;;;;;31.02;20.70;;;;;;;;;;5083672;28;20051;-76
2021/10/29 06:38:59;;;;;;;35.85;22.48;;;;;;;;;;5094473;28;20020;-73
2021/10/29 06:41:26;;;;;;;38.20;23.75;;;;;;;;;;5092772;28;20032;-74
2021/10/29 06:46:44;;;;;;;36.35;21.33;;;;;;;;;;5094339;28;20123;-73
2021/10/29 06:52:08;;;;;;;35.97;23.58;;;;;;;;;;5093841;28;20028;-72
2021/10/29 07:00:13;;;;;;;26.55;16.52;;;;;;;;;;5095470;28;20071;-74
2021/10/29 07:41:06;;;;;;;36.63;24.17;;;;;;;;;;5091203;28;20081;-69
2021/10/29 07:43:36;;;;;;;40.03;25.75;;;;;;;;;;5087121;28;20625;-68
2021/10/29 07:46:06;;;;;;;34.83;23.38;;;;;;;;;;5088933;28;20024;-69
2021/10/29 07:48:33;;;;;;;31.80;23.38;;;;;;;;;;5092812;28;20763;-74
2021/10/29 07:51:03;;;;;;;77.55;47.67;;;;;;;;;;5093217;28;20032;-71
2021/10/29 07:53:30;;;;;;;35.97;25.13;;;;;;;;;;5082934;28;20095;-71
2021/10/29 07:55:57;;;;;;;33.20;21.40;;;;;;;;;;5073767;28;20025;-71
2021/10/29 07:58:23;;;;;;;29.00;19.10;;;;;;;;;;5081442;28;20017;-71
2021/10/29 08:00:50;;;;;;;31.58;18.55;;;;;;;;;;5077428;28;20024;-72
2021/10/29 08:03:31;;;;;;;28.70;18.67;;;;;;;;;;5092459;28;20027;-73
2021/10/29 08:05:59;;;;;;;22.50;15.40;;;;;;;;;;5087605;28;20126;-73
2021/10/29 08:08:25;;;;;;;30.10;16.30;;;;;;;;;;5081758;28;20021;-72
2021/10/29 08:10:52;;;;;;;24.85;15.30;;;;;;;;;;5070243;28;20031;-73
2021/10/29 08:13:20;;;;;;;23.48;15.38;;;;;;;;;;5070724;28;20055;-74
2021/10/29 08:15:52;;;;;;;22.45;14.25;;;;;;;;;;5074194;28;20146;-74
2021/10/29 08:20:16;;;;;;;213.40;86.90;;;;;;;;;;5163542;27;20110;-73
2021/10/29 08:22:42;;;;;;;63.17;35.97;;;;;;;;;;5141331;27;20023;-75
2021/10/29 08:27:11;;;;;;;24.25;15.07;;;;;;;;;;5128860;27;20321;-74
2021/10/29 08:32:20;;;;;;;19.77;11.63;;;;;;;;;;5105540;27;20458;-73
2021/10/29 08:34:46;;;;;;;19.75;13.23;;;;;;;;;;5111146;28;20032;-73
2021/10/29 08:38:59;;;;;;;18.33;12.45;;;;;;;;;;5171073;27;20209;-76
2021/10/29 08:41:27;;;;;;;21.40;12.95;;;;;;;;;;5125671;27;20025;-73
2021/10/29 08:43:54;;;;;;;18.95;11.60;;;;;;;;;;5143738;27;20012;-74
2021/10/29 08:49:08;;;;;;;16.25;10.45;;;;;;;;;;5064887;27;20802;-71
2021/10/29 08:51:35;;;;;;;19.23;12.52;;;;;;;;;;5042369;28;20067;-73
2021/10/29 08:54:03;;;;;;;16.40;10.82;;;;;;;;;;5047677;28;20017;-73
2021/10/29 09:03:47;;;;;;;28.52;17.98;;;;;;;;;;5109508;27;20396;-74
2021/10/29 09:06:41;;;;;;;20.85;13.20;;;;;;;;;;5097119;28;20048;-72
2021/10/29 09:09:32;;;;;;;18.55;10.93;;;;;;;;;;5106134;27;20391;-74
2021/10/29 09:36:50;;;;;;;16.08;11.32;;;;;;;;;;5112368;27;20389;-71
2021/10/29 09:39:18;;;;;;;21.77;12.23;;;;;;;;;;5109061;28;20035;-71
2021/10/29 09:41:44;;;;;;;13.70;9.38;;;;;;;;;;5110796;28;20020;-72
2021/10/29 09:44:17;;;;;;;14.68;9.23;;;;;;;;;;5109309;28;20463;-72
2021/10/29 09:46:54;;;;;;;14.57;9.52;;;;;;;;;;5109311;28;20070;-72
2021/10/29 09:50:07;;;;;;;15.90;10.57;;;;;;;;;;5110073;27;20454;-74
2021/10/29 10:02:23;;;;;;;17.08;10.55;;;;;;;;;;5107477;27;20799;-73
2021/10/29 10:04:53;;;;;;;18.08;10.98;;;;;;;;;;5115357;28;20019;-73
2021/10/29 10:10:07;;;;;;;13.70;9.32;;;;;;;;;;5110098;27;20385;-74
2021/10/29 10:12:36;;;;;;;10.23;7.35;;;;;;;;;;5109291;28;20031;-73
2021/10/29 10:15:04;;;;;;;15.18;8.85;;;;;;;;;;5109784;28;20469;-73
2021/10/29 10:19:10;;;;;;;13.10;8.57;;;;;;;;;;5109224;27;20774;-73
2021/10/29 10:21:44;;;;;;;12.10;8.13;;;;;;;;;;5109968;28;20037;-74
2021/10/29 10:24:15;;;;;;;15.20;9.27;;;;;;;;;;5110361;28;20051;-71
2021/10/29 10:42:35;;;;;;;11.93;7.07;;;;;;;;;;5098428;28;20089;-74
2021/10/29 10:45:12;;;;;;;13.88;8.23;;;;;;;;;;5108869;28;20019;-77
2021/10/29 10:47:49;;;;;;;10.57;6.57;;;;;;;;;;5108100;28;20486;-72
2021/10/29 10:50:28;;;;;;;11.38;7.03;;;;;;;;;;5104463;28;20016;-73
2021/10/29 10:53:08;;;;;;;11.18;6.60;;;;;;;;;;5109167;28;20031;-74
2021/10/29 10:56:10;;;;;;;11.48;6.90;;;;;;;;;;5102992;28;20550;-73
2021/10/29 11:10:09;;;;;;;13.38;6.15;;;;;;;;;;5058021;28;20645;-74
2021/10/29 11:14:33;;;;;;;13.40;7.40;;;;;;;;;;5110610;27;20388;-73
2021/10/29 11:17:00;;;;;;;11.75;7.65;;;;;;;;;;5110308;28;20461;-73
2021/10/29 11:19:32;;;;;;;9.48;5.93;;;;;;;;;;5110486;28;20107;-73
2021/10/29 11:21:59;;;;;;;9.45;5.57;;;;;;;;;;5110819;28;20020;-72
2021/10/29 11:24:36;;;;;;;10.02;6.15;;;;;;;;;;5110462;28;20054;-72
2021/10/29 11:27:04;;;;;;;11.50;5.45;;;;;;;;;;5110327;28;20050;-72
2021/10/29 11:29:30;;;;;;;9.77;6.03;;;;;;;;;;5110370;28;20016;-72
2021/10/29 11:31:58;;;;;;;7.15;4.95;;;;;;;;;;5110280;28;20021;-73
2021/10/29 11:34:24;;;;;;;13.48;7.75;;;;;;;;;;5099224;28;20055;-73
2021/10/29 11:36:53;;;;;;;9.45;6.32;;;;;;;;;;5108377;28;20012;-74
2021/10/29 11:40:35;;;;;;;8.35;5.82;;;;;;;;;;5106805;27;20131;-73
2021/10/29 11:43:01;;;;;;;10.82;7.85;;;;;;;;;;5110715;28;20148;-74
2021/10/29 11:45:36;;;;;;;9.63;6.35;;;;;;;;;;5108805;28;20024;-74
2021/10/29 11:48:03;;;;;;;8.63;5.53;;;;;;;;;;5110657;28;20035;-72
2021/10/29 11:50:29;;;;;;;9.40;5.65;;;;;;;;;;5110257;28;20550;-74
2021/10/29 11:52:56;;;;;;;11.73;5.90;;;;;;;;;;5095961;28;20025;-74
2021/10/29 11:58:08;;;;;;;12.93;5.63;;;;;;;;;;5069559;28;20822;-74
2021/10/29 12:09:27;;;;;;;9.77;5.55;;;;;;;;;;5110606;28;20016;-74
2021/10/29 12:13:28;;;;;;;9.52;5.22;;;;;;;;;;5110373;27;20393;-72
2021/10/29 12:15:55;;;;;;;11.95;6.35;;;;;;;;;;5110834;28;20053;-72
2021/10/29 12:18:30;;;;;;;7.88;4.97;;;;;;;;;;5103275;28;20027;-73
2021/10/29 12:20:57;;;;;;;8.93;5.45;;;;;;;;;;5103441;28;20024;-74
2021/10/29 12:23:27;;;;;;;10.27;5.88;;;;;;;;;;5102635;28;20039;-73
2021/10/29 12:28:29;;;;;;;7.85;4.38;;;;;;;;;;5110140;27;20454;-72
2021/10/29 12:37:54;;;;;;;8.70;5.43;;;;;;;;;;5096308;28;20407;-72
2021/10/29 12:59:18;;;;;;;10.23;5.30;;;;;;;;;;5085838;28;20817;-75
2021/10/29 13:01:54;;;;;;;12.10;4.93;;;;;;;;;;5068292;28;20433;-76
2021/10/29 13:04:23;;;;;;;8.10;5.05;;;;;;;;;;5100425;28;20059;-75
2021/10/29 13:06:50;;;;;;;8.13;5.07;;;;;;;;;;5108695;28;20715;-75
2021/10/29 13:09:19;;;;;;;13.55;7.43;;;;;;;;;;5109622;28;20060;-75
2021/10/29 13:11:54;;;;;;;10.70;6.63;;;;;;;;;;5110532;28;20020;-75
2021/10/29 13:16:57;;;;;;;10.20;5.13;;;;;;;;;;5110241;28;20325;-76
2021/10/29 13:34:23;;;;;;;12.65;6.93;;;;;;;;;;5110165;28;20379;-75
2021/10/29 13:51:57;;;;;;;9.35;5.40;;;;;;;;;;5109438;28;20034;-75
2021/10/29 13:54:47;;;;;;;22.35;13.25;;;;;;;;;;5109906;28;20471;-75
2021/10/29 13:57:41;;;;;;;8.52;5.82;;;;;;;;;;5110244;28;20016;-75
2021/10/29 14:29:47;;;;;;;12.82;6.97;;;;;;;;;;5095573;28;20070;-75
2021/10/29 14:32:22;;;;;;;10.90;6.53;;;;;;;;;;5095622;28;20073;-74
2021/10/29 14:34:54;;;;;;;16.45;10.45;;;;;;;;;;5095027;28;20081;-74
2021/10/29 14:40:48;;;;;;;11.90;7.68;;;;;;;;;;5074804;28;20024;-74
2021/10/29 14:42:52;;;;;;;13.02;7.75;;;;;;;;;;5067791;28;20416;-74
2021/10/29 14:50:50;;;;;;;23.02;15.98;;;;;;;;;;5074895;28;20476;-74
2021/10/29 15:01:46;;;;;;;22.52;15.57;;;;;;;;;;5074375;28;20111;-75
2021/10/29 15:18:18;;;;;;;62.72;40.60;;;;;;;;;;5131382;27;20310;-75
2021/10/29 15:25:42;;;;;;;42.63;28.00;;;;;;;;;;5111014;27;20113;-74
2021/10/29 15:31:03;;;;;;;47.58;32.75;;;;;;;;;;5090308;28;20034;-72
2021/10/29 15:33:40;;;;;;;61.38;41.03;;;;;;;;;;5090001;28;20036;-74
2021/10/29 15:48:04;;;;;;;65.35;46.13;;;;;;;;;;5111287;27;20388;-74
2021/10/29 15:50:33;;;;;;;75.28;46.95;;;;;;;;;;5110239;28;20523;-75
2021/10/29 15:54:02;;;;;;;63.72;44.28;;;;;;;;;;5109017;27;20404;-74
2021/10/29 15:57:11;;;;;;;58.72;38.42;;;;;;;;;;5109206;28;20024;-74
2021/10/29 15:59:29;;;;;;;47.95;31.38;;;;;;;;;;5104496;28;20081;-73
2021/10/29 16:21:00;;;;;;;128.07;77.57;;;;;;;;;;5070547;28;20845;-74
2021/10/29 16:23:46;;;;;;;104.82;65.88;;;;;;;;;;5111515;27;20397;-72
2021/10/29 16:26:15;;;;;;;105.05;70.80;;;;;;;;;;5110378;28;20081;-74
2021/10/29 16:32:29;;;;;;;132.32;92.68;;;;;;;;;;5110519;27;20419;-73
2021/10/29 16:34:55;;;;;;;138.35;89.20;;;;;;;;;;5111247;28;20085;-73
2021/10/29 16:37:22;;;;;;;141.75;92.65;;;;;;;;;;5110761;28;20024;-73
2021/10/29 16:39:49;;;;;;;176.65;114.70;;;;;;;;;;5110619;28;20085;-73
2021/10/29 16:42:15;;;;;;;171.13;110.20;;;;;;;;;;5109583;28;20106;-73
2021/10/29 16:44:42;;;;;;;122.93;81.68;;;;;;;;;;5110844;28;20099;-73
2021/10/29 16:49:36;;;;;;;126.97;78.65;;;;;;;;;;5111670;27;20396;-72
2021/10/29 16:53:59;;;;;;;82.13;51.75;;;;;;;;;;5131383;27;20112;-74
2021/10/29 16:57:06;;;;;;;85.00;51.08;;;;;;;;;;5111196;27;20481;-74
2021/10/29 17:01:01;;;;;;;76.25;48.10;;;;;;;;;;5110578;27;20462;-73
2021/10/29 17:03:27;;;;;;;89.68;55.50;;;;;;;;;;5110923;28;20027;-74
2021/10/29 17:09:11;;;;;;;97.75;61.83;;;;;;;;;;5110674;27;20980;-74
2021/10/29 17:11:37;;;;;;;100.43;65.82;;;;;;;;;;5110923;28;20064;-73
2021/10/29 17:14:03;;;;;;;89.35;54.72;;;;;;;;;;5111003;28;20020;-74
2021/10/29 17:19:18;;;;;;;100.18;64.03;;;;;;;;;;5111090;27;20446;-74
2021/10/29 17:21:44;;;;;;;104.20;66.22;;;;;;;;;;5110631;28;20030;-73
2021/10/29 17:24:10;;;;;;;85.70;52.75;;;;;;;;;;5110877;28;20024;-73
2021/10/29 17:26:37;;;;;;;69.53;47.22;;;;;;;;;;5111042;28;20055;-74
2021/10/29 17:29:03;;;;;;;74.82;49.33;;;;;;;;;;5110540;28;20543;-73
2021/10/29 17:34:01;;;;;;;62.33;41.80;;;;;;;;;;5111254;27;20450;-73
2021/10/29 17:38:08;;;;;;;64.95;42.17;;;;;;;;;;5111263;27;20441;-74
2021/10/29 17:40:35;;;;;;;61.83;39.83;;;;;;;;;;5111007;28;20050;-74
2021/10/29 17:44:09;;;;;;;66.30;45.70;;;;;;;;;;5110236;27;20393;-74
2021/10/29 17:46:36;;;;;;;98.38;58.80;;;;;;;;;;5110347;28;20046;-75
2021/10/29 17:49:02;;;;;;;102.63;61.58;;;;;;;;;;5111052;28;20024;-74
2021/10/29 17:52:03;;;;;;;94.95;63.13;;;;;;;;;;5111117;27;20393;-74
2021/10/29 17:54:37;;;;;;;103.35;63.80;;;;;;;;;;5111006;28;20133;-73
2021/10/29 17:57:54;;;;;;;124.15;73.05;;;;;;;;;;5110747;27;20393;-74
2021/10/29 18:00:20;;;;;;;116.43;70.68;;;;;;;;;;5110894;28;20020;-73
2021/10/29 18:02:46;;;;;;;103.30;65.78;;;;;;;;;;5110976;28;20073;-74
2021/10/29 18:05:16;;;;;;;86.63;56.33;;;;;;;;;;5110238;28;20091;-73
2021/10/29 18:07:42;;;;;;;117.75;73.35;;;;;;;;;;5110777;28;20027;-74
2021/10/29 18:10:10;;;;;;;140.07;85.78;;;;;;;;;;5110830;28;20027;-73
2021/10/29 18:12:36;;;;;;;141.82;87.00;;;;;;;;;;5110432;28;20371;-73
2021/10/29 18:15:05;;;;;;;180.55;105.32;;;;;;;;;;5110645;28;20095;-73
2021/10/29 18:17:31;;;;;;;147.48;88.38;;;;;;;;;;5110546;28;20035;-76
2021/10/29 18:19:57;;;;;;;127.30;81.72;;;;;;;;;;5110743;28;20481;-74
2021/10/29 18:22:24;;;;;;;120.93;72.95;;;;;;;;;;5110590;28;20169;-74
2021/10/29 18:24:50;;;;;;;95.95;67.25;;;;;;;;;;5110117;28;20031;-75
2021/10/29 18:27:18;;;;;;;97.50;62.33;;;;;;;;;;5110203;28;20507;-74
2021/10/29 18:29:46;;;;;;;108.15;68.22;;;;;;;;;;5110437;28;20027;-74
2021/10/29 18:32:13;;;;;;;65.28;41.63;;;;;;;;;;5110016;28;20485;-74
2021/10/29 18:34:39;;;;;;;47.63;31.40;;;;;;;;;;5110952;28;20030;-75
2021/10/29 18:37:06;;;;;;;48.22;29.05;;;;;;;;;;5110237;28;20032;-74
2021/10/29 18:39:33;;;;;;;43.80;27.38;;;;;;;;;;5109947;28;20499;-74
2021/10/29 18:41:59;;;;;;;40.13;25.65;;;;;;;;;;5110126;28;20391;-75
2021/10/29 18:44:25;;;;;;;37.72;24.00;;;;;;;;;;5110169;28;20020;-74
2021/10/29 18:46:51;;;;;;;38.30;20.15;;;;;;;;;;5109866;28;20463;-74
2021/10/29 18:49:18;;;;;;;30.65;19.17;;;;;;;;;;5110135;28;20050;-74
2021/10/29 18:51:44;;;;;;;41.45;25.05;;;;;;;;;;5110030;28;20478;-74
2021/10/29 18:54:10;;;;;;;52.28;32.25;;;;;;;;;;5109672;28;20077;-74
2021/10/29 18:56:36;;;;;;;57.20;33.92;;;;;;;;;;5108409;28;20052;-74
2021/10/29 18:59:06;;;;;;;65.63;40.45;;;;;;;;;;5109930;28;20388;-74
2021/10/29 19:01:33;;;;;;;64.18;39.13;;;;;;;;;;5108199;28;20131;-74
2021/10/29 19:04:00;;;;;;;55.13;35.05;;;;;;;;;;5109882;28;20539;-74
2021/10/29 19:06:26;;;;;;;53.35;32.47;;;;;;;;;;5109672;28;20024;-76
2021/10/29 19:08:52;;;;;;;56.92;35.83;;;;;;;;;;5097712;28;20526;-75
2021/10/29 19:11:26;;;;;;;69.63;42.28;;;;;;;;;;5094785;28;20024;-73
2021/10/29 19:13:52;;;;;;;60.33;35.67;;;;;;;;;;5095596;28;20034;-73
2021/10/29 19:16:19;;;;;;;48.30;31.52;;;;;;;;;;5095790;28;20020;-73
2021/10/29 19:18:45;;;;;;;52.55;31.80;;;;;;;;;;5096096;28;20024;-73
2021/10/29 19:21:11;;;;;;;50.97;34.28;;;;;;;;;;5094208;28;20016;-73
2021/10/29 19:23:37;;;;;;;44.60;30.05;;;;;;;;;;5095956;28;20475;-74
2021/10/29 19:26:03;;;;;;;48.83;29.88;;;;;;;;;;5094506;28;20027;-73
2021/10/29 19:28:30;;;;;;;51.47;32.53;;;;;;;;;;5095602;28;20095;-73
2021/10/29 19:30:56;;;;;;;83.45;48.72;;;;;;;;;;5094298;28;20024;-72
2021/10/29 19:33:22;;;;;;;105.10;61.38;;;;;;;;;;5095557;28;20503;-74
2021/10/29 19:35:55;;;;;;;73.47;46.35;;;;;;;;;;5095307;28;20052;-74
2021/10/29 19:38:23;;;;;;;65.05;42.63;;;;;;;;;;5095946;28;20024;-74
2021/10/29 19:40:51;;;;;;;96.85;57.30;;;;;;;;;;5095567;28;20020;-74
2021/10/29 19:43:18;;;;;;;89.30;51.00;;;;;;;;;;5095234;28;20038;-74
2021/10/29 19:45:46;;;;;;;92.32;53.63;;;;;;;;;;5095406;28;20016;-73
2021/10/29 19:48:12;;;;;;;63.17;42.70;;;;;;;;;;5095735;28;20020;-73
2021/10/29 19:50:41;;;;;;;60.65;35.83;;;;;;;;;;5093815;28;20024;-74
2021/10/29 19:53:07;;;;;;;54.75;36.38;;;;;;;;;;5095452;28;20032;-74
2021/10/29 19:55:39;;;;;;;43.97;30.50;;;;;;;;;;5095122;28;20020;-73
2021/10/29 19:58:11;;;;;;;41.85;27.20;;;;;;;;;;5095022;28;20057;-74
2021/10/29 20:00:38;;;;;;;47.30;28.60;;;;;;;;;;5094360;28;20146;-72
2021/10/29 20:03:04;;;;;;;44.63;27.67;;;;;;;;;;5094704;28;20043;-72
2021/10/29 20:05:31;;;;;;;46.05;31.05;;;;;;;;;;5095087;28;20030;-75
2021/10/29 20:07:57;;;;;;;67.00;38.95;;;;;;;;;;5095096;28;20016;-74
2021/10/29 20:10:23;;;;;;;51.85;30.00;;;;;;;;;;5094140;28;20020;-74
2021/10/29 20:12:50;;;;;;;44.15;25.70;;;;;;;;;;5094854;28;20024;-73